Fullerton, Nebraska
Current Conditions -  °F | °C
As of 10:35 AM on Saturday 25 Oct 2014 (Local Time) from KBVN Reporting Station
Clear Clear  
Wind Chill: 60°   Ceiling: Unl
Heat Index: 60°   Visibility: 10mi
Dew Point: 40°   Wind: 9mph
Humidity: 48%   Direction: 90°E
Pressure: 30.15"   Gusts: NA
Location:  41.36°N, 97.97°W
Report Text: KBVN 251535Z AUTO 09008KT 10SM CLR 15/04 A3015 RMK AO2 T01530044
Loading
Personal Weather Stations






























Interactive Weather Map
Tropical Storm Tracking
New forecast layout! Learn more

10-Day Weather Forecast

Advertisements
Track Severe Weather on mobile